sensor_id;sensor_type;location;lat;lon;timestamp;P1;durP1;ratioP1;P2;durP2;ratioP2
9506;SDS011;4791;47.528;9.372;2023-06-10T00:07:37;8.30;;;6.45;;
9506;SDS011;4791;47.528;9.372;2023-06-10T00:22:41;6.75;;;6.13;;
9506;SDS011;4791;47.528;9.372;2023-06-10T00:37:45;6.82;;;5.75;;
9506;SDS011;4791;47.528;9.372;2023-06-10T00:52:46;7.15;;;6.13;;
9506;SDS011;4791;47.528;9.372;2023-06-10T01:22:54;6.65;;;5.78;;
9506;SDS011;4791;47.528;9.372;2023-06-10T01:37:54;6.57;;;5.95;;
9506;SDS011;4791;47.528;9.372;2023-06-10T01:52:59;6.47;;;5.88;;
9506;SDS011;4791;47.528;9.372;2023-06-10T02:08:00;6.72;;;6.13;;
9506;SDS011;4791;47.528;9.372;2023-06-10T02:23:01;8.55;;;6.95;;
9506;SDS011;4791;47.528;9.372;2023-06-10T02:38:03;7.68;;;7.00;;
9506;SDS011;4791;47.528;9.372;2023-06-10T02:53:04;7.97;;;7.20;;
9506;SDS011;4791;47.528;9.372;2023-06-10T03:08:05;10.20;;;7.57;;
9506;SDS011;4791;47.528;9.372;2023-06-10T03:23:08;9.38;;;8.48;;
9506;SDS011;4791;47.528;9.372;2023-06-10T03:38:09;9.38;;;8.40;;
9506;SDS011;4791;47.528;9.372;2023-06-10T03:53:10;13.68;;;8.38;;
9506;SDS011;4791;47.528;9.372;2023-06-10T04:08:10;11.40;;;8.43;;
9506;SDS011;4791;47.528;9.372;2023-06-10T04:23:15;9.40;;;8.07;;
9506;SDS011;4791;47.528;9.372;2023-06-10T04:38:16;8.60;;;7.80;;
9506;SDS011;4791;47.528;9.372;2023-06-10T04:53:16;9.60;;;8.70;;
9506;SDS011;4791;47.528;9.372;2023-06-10T05:08:16;9.55;;;8.73;;
9506;SDS011;4791;47.528;9.372;2023-06-10T05:23:17;10.65;;;8.73;;
9506;SDS011;4791;47.528;9.372;2023-06-10T05:38:17;9.15;;;8.35;;
9506;SDS011;4791;47.528;9.372;2023-06-10T05:53:17;9.27;;;8.38;;
9506;SDS011;4791;47.528;9.372;2023-06-10T06:08:18;10.50;;;9.35;;
9506;SDS011;4791;47.528;9.372;2023-06-10T06:23:18;10.30;;;9.30;;
9506;SDS011;4791;47.528;9.372;2023-06-10T06:38:19;8.45;;;7.65;;
9506;SDS011;4791;47.528;9.372;2023-06-10T06:53:19;9.57;;;8.32;;
9506;SDS011;4791;47.528;9.372;2023-06-10T07:08:20;10.10;;;8.73;;
9506;SDS011;4791;47.528;9.372;2023-06-10T07:23:22;11.15;;;9.68;;
9506;SDS011;4791;47.528;9.372;2023-06-10T07:38:25;10.65;;;9.57;;
9506;SDS011;4791;47.528;9.372;2023-06-10T07:53:26;11.15;;;10.10;;
9506;SDS011;4791;47.528;9.372;2023-06-10T08:08:26;20.85;;;9.50;;
9506;SDS011;4791;47.528;9.372;2023-06-10T08:23:27;11.20;;;8.48;;
9506;SDS011;4791;47.528;9.372;2023-06-10T08:38:27;11.07;;;9.73;;
9506;SDS011;4791;47.528;9.372;2023-06-10T08:53:27;8.30;;;7.50;;
9506;SDS011;4791;47.528;9.372;2023-06-10T09:08:30;8.20;;;7.22;;
9506;SDS011;4791;47.528;9.372;2023-06-10T09:23:31;8.87;;;7.97;;
9506;SDS011;4791;47.528;9.372;2023-06-10T09:38:32;8.10;;;7.30;;
9506;SDS011;4791;47.528;9.372;2023-06-10T09:53:36;10.73;;;7.65;;
9506;SDS011;4791;47.528;9.372;2023-06-10T10:08:37;6.85;;;6.22;;
9506;SDS011;4791;47.528;9.372;2023-06-10T10:24:01;8.80;;;7.80;;
9506;SDS011;4791;47.528;9.372;2023-06-10T10:39:08;7.05;;;6.35;;
9506;SDS011;4791;47.528;9.372;2023-06-10T10:54:15;9.50;;;7.38;;
9506;SDS011;4791;47.528;9.372;2023-06-10T11:09:27;7.78;;;6.97;;
9506;SDS011;4791;47.528;9.372;2023-06-10T11:24:29;6.53;;;5.82;;
9506;SDS011;4791;47.528;9.372;2023-06-10T11:39:32;6.13;;;5.38;;
9506;SDS011;4791;47.528;9.372;2023-06-10T11:54:35;7.22;;;5.38;;
9506;SDS011;4791;47.528;9.372;2023-06-10T12:09:35;8.25;;;4.05;;
9506;SDS011;4791;47.528;9.372;2023-06-10T12:24:43;5.90;;;5.20;;
9506;SDS011;4791;47.528;9.372;2023-06-10T12:39:50;5.68;;;5.07;;
9506;SDS011;4791;47.528;9.372;2023-06-10T12:54:54;5.55;;;4.47;;
9506;SDS011;4791;47.528;9.372;2023-06-10T13:09:54;7.85;;;6.18;;
9506;SDS011;4791;47.528;9.372;2023-06-10T13:24:55;5.03;;;4.53;;
9506;SDS011;4791;47.528;9.372;2023-06-10T13:39:55;6.28;;;4.47;;
9506;SDS011;4791;47.528;9.372;2023-06-10T13:54:56;7.50;;;3.85;;
9506;SDS011;4791;47.528;9.372;2023-06-10T14:09:56;4.93;;;3.83;;
9506;SDS011;4791;47.528;9.372;2023-06-10T14:24:57;4.18;;;3.30;;
9506;SDS011;4791;47.528;9.372;2023-06-10T14:40:00;4.22;;;3.35;;
9506;SDS011;4791;47.528;9.372;2023-06-10T14:55:02;2.63;;;2.40;;
9506;SDS011;4791;47.528;9.372;2023-06-10T15:10:03;3.65;;;2.88;;
9506;SDS011;4791;47.528;9.372;2023-06-10T15:25:05;4.75;;;2.50;;
9506;SDS011;4791;47.528;9.372;2023-06-10T15:40:06;4.93;;;3.20;;
9506;SDS011;4791;47.528;9.372;2023-06-10T15:55:07;4.35;;;2.95;;
9506;SDS011;4791;47.528;9.372;2023-06-10T16:10:08;7.00;;;2.88;;
9506;SDS011;4791;47.528;9.372;2023-06-10T16:25:11;2.78;;;2.55;;
9506;SDS011;4791;47.528;9.372;2023-06-10T16:40:12;3.15;;;2.70;;
9506;SDS011;4791;47.528;9.372;2023-06-10T16:55:12;2.42;;;2.22;;
9506;SDS011;4791;47.528;9.372;2023-06-10T17:10:17;3.90;;;2.30;;
9506;SDS011;4791;47.528;9.372;2023-06-10T17:25:18;3.03;;;2.67;;
9506;SDS011;4791;47.528;9.372;2023-06-10T17:40:18;4.50;;;3.33;;
9506;SDS011;4791;47.528;9.372;2023-06-10T17:55:19;4.45;;;3.10;;
9506;SDS011;4791;47.528;9.372;2023-06-10T18:10:19;5.00;;;3.78;;
9506;SDS011;4791;47.528;9.372;2023-06-10T18:25:20;4.63;;;3.50;;
9506;SDS011;4791;47.528;9.372;2023-06-10T18:40:20;3.78;;;3.35;;
9506;SDS011;4791;47.528;9.372;2023-06-10T18:55:21;9.55;;;3.90;;
9506;SDS011;4791;47.528;9.372;2023-06-10T19:10:21;4.47;;;4.07;;
9506;SDS011;4791;47.528;9.372;2023-06-10T19:25:24;6.63;;;3.88;;
9506;SDS011;4791;47.528;9.372;2023-06-10T19:40:24;4.75;;;4.07;;
9506;SDS011;4791;47.528;9.372;2023-06-10T19:55:27;4.35;;;3.92;;
9506;SDS011;4791;47.528;9.372;2023-06-10T20:10:27;4.00;;;3.60;;
9506;SDS011;4791;47.528;9.372;2023-06-10T20:25:28;4.72;;;4.00;;
9506;SDS011;4791;47.528;9.372;2023-06-10T20:40:29;5.05;;;3.90;;
9506;SDS011;4791;47.528;9.372;2023-06-10T20:55:30;4.90;;;4.50;;
9506;SDS011;4791;47.528;9.372;2023-06-10T21:10:30;5.35;;;4.85;;
9506;SDS011;4791;47.528;9.372;2023-06-10T21:25:31;4.85;;;4.35;;
9506;SDS011;4791;47.528;9.372;2023-06-10T21:40:31;6.90;;;6.20;;
9506;SDS011;4791;47.528;9.372;2023-06-10T21:55:32;4.65;;;4.22;;
9506;SDS011;4791;47.528;9.372;2023-06-10T22:10:32;4.50;;;4.10;;
9506;SDS011;4791;47.528;9.372;2023-06-10T22:25:32;6.13;;;3.90;;
9506;SDS011;4791;47.528;9.372;2023-06-10T22:40:33;4.05;;;3.63;;
9506;SDS011;4791;47.528;9.372;2023-06-10T22:55:33;4.22;;;3.83;;
9506;SDS011;4791;47.528;9.372;2023-06-10T23:10:36;5.10;;;4.70;;
9506;SDS011;4791;47.528;9.372;2023-06-10T23:25:36;5.10;;;4.60;;
9506;SDS011;4791;47.528;9.372;2023-06-10T23:40:37;5.13;;;4.63;;
9506;SDS011;4791;47.528;9.372;2023-06-10T23:55:39;5.68;;;4.97;;
